Time;durP1;ratioP1;P1;durP2;ratioP2;P2;SDS_P1;SDS_P2;PMS_P1;PMS_P2;Temp;Humidity;BMP_temperature;BMP_pressure;BME280_temperature;BME280_humidity;BME280_pressure;Samples;Min_cycle;Max_cycle;Signal;HPM_P1;HPM_P2
2022/12/09 00:00:43;;;;;;;0.65;0.38;;;;;;;;;;4141174;28;20054;-39
2022/12/09 00:02:44;;;;;;;1.00;0.40;;;;;;;;;;4145957;28;20057;-39
2022/12/09 00:04:46;;;;;;;0.93;0.50;;;;;;;;;;4142768;28;20108;-40
2022/12/09 00:06:48;;;;;;;0.70;0.47;;;;;;;;;;4136979;28;20057;-39
2022/12/09 00:08:49;;;;;;;0.70;0.50;;;;;;;;;;4145996;28;20054;-39
2022/12/09 00:10:51;;;;;;;1.15;0.52;;;;;;;;;;4146281;28;20054;-39
2022/12/09 00:12:54;;;;;;;0.68;0.50;;;;;;;;;;4133160;28;20053;-39
2022/12/09 00:14:55;;;;;;;1.58;0.50;;;;;;;;;;4146602;28;20065;-39
2022/12/09 00:16:56;;;;;;;0.70;0.40;;;;;;;;;;4128744;28;20116;-39
2022/12/09 00:18:57;;;;;;;0.60;0.40;;;;;;;;;;4129066;28;20062;-39
2022/12/09 00:20:58;;;;;;;0.50;0.35;;;;;;;;;;4143892;28;20053;-39
2022/12/09 00:23:00;;;;;;;0.70;0.50;;;;;;;;;;4122465;28;20411;-41
2022/12/09 00:25:01;;;;;;;0.60;0.57;;;;;;;;;;4138034;28;20124;-39
2022/12/09 00:27:02;;;;;;;0.90;0.38;;;;;;;;;;4134680;28;20085;-39
2022/12/09 00:29:04;;;;;;;0.60;0.40;;;;;;;;;;4129679;28;20136;-39
2022/12/09 00:31:05;;;;;;;0.65;0.40;;;;;;;;;;4124036;28;20224;-39
2022/12/09 00:33:07;;;;;;;1.05;0.52;;;;;;;;;;4128623;28;20054;-40
2022/12/09 00:35:08;;;;;;;0.95;0.40;;;;;;;;;;4128765;28;20124;-39
2022/12/09 00:37:10;;;;;;;0.65;0.50;;;;;;;;;;4128091;28;20121;-39
2022/12/09 00:39:11;;;;;;;0.43;0.40;;;;;;;;;;4128257;28;20054;-39
2022/12/09 00:41:13;;;;;;;0.85;0.45;;;;;;;;;;4151313;28;20061;-39
2022/12/09 00:43:14;;;;;;;0.40;0.30;;;;;;;;;;4128668;28;20050;-39
2022/12/09 00:45:16;;;;;;;1.35;0.70;;;;;;;;;;4142420;28;20458;-39
2022/12/09 00:47:17;;;;;;;0.50;0.43;;;;;;;;;;4142309;28;20112;-39
2022/12/09 00:49:18;;;;;;;0.35;0.30;;;;;;;;;;4135169;28;20053;-38
2022/12/09 00:51:22;;;;;;;0.80;0.30;;;;;;;;;;4146021;28;20053;-40
2022/12/09 00:53:24;;;;;;;0.77;0.43;;;;;;;;;;4145517;28;20050;-40
2022/12/09 00:55:25;;;;;;;0.80;0.35;;;;;;;;;;4143229;28;20053;-40
2022/12/09 00:57:26;;;;;;;1.23;0.50;;;;;;;;;;4134264;28;20089;-40
2022/12/09 00:59:27;;;;;;;0.50;0.30;;;;;;;;;;4137592;28;20097;-40
2022/12/09 01:01:29;;;;;;;0.88;0.47;;;;;;;;;;4139868;28;20115;-40
2022/12/09 01:03:30;;;;;;;1.42;0.50;;;;;;;;;;4144681;28;20049;-40
2022/12/09 01:05:35;;;;;;;1.00;0.40;;;;;;;;;;4133411;28;20058;-39
2022/12/09 01:07:36;;;;;;;0.70;0.43;;;;;;;;;;4138008;28;20478;-40
2022/12/09 01:09:37;;;;;;;0.85;0.30;;;;;;;;;;4155348;28;20053;-40
2022/12/09 01:11:39;;;;;;;0.25;0.20;;;;;;;;;;4133927;28;20112;-40
2022/12/09 01:13:40;;;;;;;0.80;0.57;;;;;;;;;;4142633;28;20050;-40
2022/12/09 01:15:42;;;;;;;0.80;0.55;;;;;;;;;;4136326;28;20053;-39
2022/12/09 01:17:43;;;;;;;1.15;0.40;;;;;;;;;;4146627;28;20112;-39
2022/12/09 01:19:45;;;;;;;0.50;0.35;;;;;;;;;;4136294;28;20459;-39
2022/12/09 01:21:46;;;;;;;0.60;0.30;;;;;;;;;;4147952;28;20123;-40
2022/12/09 01:23:47;;;;;;;0.40;0.40;;;;;;;;;;4147628;28;20050;-39
2022/12/09 01:25:48;;;;;;;0.80;0.50;;;;;;;;;;4140208;28;20140;-40
2022/12/09 01:27:49;;;;;;;0.38;0.38;;;;;;;;;;4158780;28;20053;-39
2022/12/09 01:29:51;;;;;;;0.63;0.40;;;;;;;;;;4163041;28;20357;-39
2022/12/09 01:31:53;;;;;;;1.00;0.70;;;;;;;;;;4148506;28;20533;-39
2022/12/09 01:33:55;;;;;;;0.45;0.38;;;;;;;;;;4148271;28;20046;-39
2022/12/09 01:35:56;;;;;;;0.95;0.40;;;;;;;;;;4148342;28;20054;-40
2022/12/09 01:37:57;;;;;;;1.05;0.68;;;;;;;;;;4133098;28;20086;-39
2022/12/09 01:39:59;;;;;;;0.50;0.40;;;;;;;;;;4148448;28;20065;-39
2022/12/09 01:42:02;;;;;;;1.02;0.50;;;;;;;;;;4148374;28;20520;-40
2022/12/09 01:44:13;;;;;;;1.33;0.60;;;;;;;;;;4148155;28;20054;-39
2022/12/09 01:46:15;;;;;;;1.15;0.60;;;;;;;;;;4146764;28;20494;-39
2022/12/09 01:48:18;;;;;;;1.25;0.40;;;;;;;;;;4134809;28;20104;-40
2022/12/09 01:50:20;;;;;;;0.47;0.40;;;;;;;;;;4130758;28;20108;-39
2022/12/09 01:52:22;;;;;;;0.55;0.40;;;;;;;;;;4132239;28;20108;-39
2022/12/09 01:54:24;;;;;;;1.40;0.50;;;;;;;;;;4159814;28;20045;-39
2022/12/09 01:56:31;;;;;;;0.60;0.40;;;;;;;;;;4150745;28;20452;-39
2022/12/09 01:58:33;;;;;;;1.15;0.57;;;;;;;;;;4114574;28;20066;-41
2022/12/09 02:00:34;;;;;;;0.55;0.43;;;;;;;;;;4136147;28;20062;-39
2022/12/09 02:02:38;;;;;;;1.63;0.50;;;;;;;;;;4146384;28;20093;-39
2022/12/09 02:04:41;;;;;;;0.52;0.40;;;;;;;;;;4131012;28;20171;-39
2022/12/09 02:06:42;;;;;;;2.05;0.60;;;;;;;;;;4163018;28;20481;-39
2022/12/09 02:08:47;;;;;;;0.80;0.45;;;;;;;;;;4135475;28;20073;-40
2022/12/09 02:11:18;;;;;;;0.85;0.55;;;;;;;;;;4144269;28;20165;-40
2022/12/09 02:13:23;;;;;;;0.93;0.40;;;;;;;;;;4137992;28;20544;-39
2022/12/09 02:15:31;;;;;;;0.50;0.40;;;;;;;;;;4130496;28;20097;-40
2022/12/09 02:17:40;;;;;;;1.33;0.50;;;;;;;;;;4146283;28;20052;-40
2022/12/09 02:20:00;;;;;;;0.60;0.50;;;;;;;;;;4130298;28;20116;-39
2022/12/09 02:22:02;;;;;;;0.30;0.30;;;;;;;;;;4142009;28;20100;-39
2022/12/09 02:24:07;;;;;;;0.65;0.43;;;;;;;;;;4111789;28;20154;-40
2022/12/09 02:26:31;;;;;;;0.60;0.30;;;;;;;;;;4146447;28;20098;-39
2022/12/09 02:28:51;;;;;;;0.47;0.38;;;;;;;;;;4145836;28;20072;-39
2022/12/09 02:31:17;;;;;;;0.65;0.50;;;;;;;;;;4117531;28;20088;-38
2022/12/09 02:33:53;;;;;;;0.28;0.28;;;;;;;;;;4136480;28;20097;-39
2022/12/09 02:36:01;;;;;;;0.32;0.30;;;;;;;;;;4130106;28;20166;-39
2022/12/09 02:38:19;;;;;;;2.25;0.57;;;;;;;;;;4121601;28;20415;-40
2022/12/09 02:40:34;;;;;;;0.70;0.40;;;;;;;;;;4129603;28;20062;-40
2022/12/09 02:42:35;;;;;;;0.98;0.65;;;;;;;;;;4130092;28;20498;-39
2022/12/09 02:44:39;;;;;;;0.65;0.30;;;;;;;;;;4146157;28;20112;-39
2022/12/09 02:46:43;;;;;;;0.47;0.38;;;;;;;;;;4158002;28;20053;-40
2022/12/09 02:48:51;;;;;;;0.45;0.40;;;;;;;;;;4127869;28;20152;-39
2022/12/09 02:50:53;;;;;;;0.40;0.40;;;;;;;;;;4129763;28;20093;-40
2022/12/09 02:52:55;;;;;;;0.75;0.52;;;;;;;;;;4105978;28;20126;-40
2022/12/09 02:54:59;;;;;;;0.60;0.30;;;;;;;;;;4139749;28;20112;-40
2022/12/09 02:57:06;;;;;;;0.65;0.60;;;;;;;;;;4133601;28;20094;-39
2022/12/09 02:59:08;;;;;;;1.05;0.50;;;;;;;;;;4125093;28;20050;-40
2022/12/09 03:01:28;;;;;;;1.63;0.35;;;;;;;;;;4136686;28;20058;-39
2022/12/09 03:03:32;;;;;;;0.73;0.57;;;;;;;;;;4127403;28;20050;-40
2022/12/09 03:05:46;;;;;;;1.40;0.60;;;;;;;;;;4112386;28;20443;-39
2022/12/09 03:08:02;;;;;;;0.32;0.32;;;;;;;;;;4140698;28;20049;-40
2022/12/09 03:10:11;;;;;;;1.08;0.60;;;;;;;;;;4146298;28;20057;-39
2022/12/09 03:12:15;;;;;;;0.43;0.40;;;;;;;;;;4149292;28;20056;-39
2022/12/09 03:14:43;;;;;;;0.77;0.50;;;;;;;;;;4152953;28;20156;-40
2022/12/09 03:16:54;;;;;;;0.65;0.50;;;;;;;;;;4146337;28;20054;-39
2022/12/09 03:19:19;;;;;;;0.60;0.40;;;;;;;;;;4146923;28;20124;-39
2022/12/09 03:21:21;;;;;;;0.93;0.50;;;;;;;;;;4129327;28;20054;-39
2022/12/09 03:23:25;;;;;;;0.43;0.30;;;;;;;;;;4101990;28;20426;-40
2022/12/09 03:25:31;;;;;;;1.40;0.70;;;;;;;;;;4146880;28;20555;-39
2022/12/09 03:27:37;;;;;;;0.80;0.50;;;;;;;;;;4136616;28;20065;-40
2022/12/09 03:29:40;;;;;;;0.75;0.40;;;;;;;;;;4143437;28;20496;-40
2022/12/09 03:31:42;;;;;;;0.60;0.47;;;;;;;;;;4117298;28;20457;-39
2022/12/09 03:33:46;;;;;;;0.80;0.50;;;;;;;;;;4122234;28;20260;-39
2022/12/09 03:35:56;;;;;;;0.38;0.30;;;;;;;;;;4107649;28;20087;-39
2022/12/09 03:37:57;;;;;;;0.57;0.38;;;;;;;;;;4128466;28;20487;-39
2022/12/09 03:39:59;;;;;;;0.50;0.40;;;;;;;;;;4128197;28;20062;-40
2022/12/09 03:42:03;;;;;;;0.77;0.57;;;;;;;;;;4130379;28;20411;-40
2022/12/09 03:44:11;;;;;;;0.50;0.50;;;;;;;;;;4140967;28;20076;-39
2022/12/09 03:46:13;;;;;;;0.40;0.40;;;;;;;;;;4144797;28;20406;-40
2022/12/09 03:48:14;;;;;;;0.52;0.40;;;;;;;;;;4117735;28;20502;-39
2022/12/09 03:50:16;;;;;;;0.68;0.30;;;;;;;;;;4138428;28;20054;-39
2022/12/09 03:52:35;;;;;;;0.45;0.40;;;;;;;;;;4141381;28;20197;-39
2022/12/09 03:54:43;;;;;;;0.65;0.38;;;;;;;;;;4148249;28;20049;-42
2022/12/09 03:56:47;;;;;;;0.77;0.50;;;;;;;;;;4139187;28;20442;-39
2022/12/09 03:58:52;;;;;;;0.50;0.45;;;;;;;;;;4123137;28;20556;-40
2022/12/09 04:00:54;;;;;;;0.60;0.50;;;;;;;;;;4144165;28;20053;-40
2022/12/09 04:02:55;;;;;;;0.95;0.50;;;;;;;;;;4128933;28;20050;-39
2022/12/09 04:04:56;;;;;;;0.77;0.50;;;;;;;;;;4146328;28;20104;-40
2022/12/09 04:06:58;;;;;;;0.50;0.43;;;;;;;;;;4136265;28;20443;-39
2022/12/09 04:08:59;;;;;;;0.38;0.38;;;;;;;;;;4125297;28;20058;-40
2022/12/09 04:11:00;;;;;;;0.60;0.55;;;;;;;;;;4132489;28;20061;-40
2022/12/09 04:13:02;;;;;;;0.60;0.40;;;;;;;;;;4146453;28;20061;-39
2022/12/09 04:15:03;;;;;;;0.52;0.50;;;;;;;;;;4146395;28;20508;-40
2022/12/09 04:17:05;;;;;;;0.55;0.40;;;;;;;;;;4134535;28;20061;-39
2022/12/09 04:19:06;;;;;;;0.30;0.30;;;;;;;;;;4127322;28;20062;-40
2022/12/09 04:21:08;;;;;;;0.52;0.50;;;;;;;;;;4146219;28;20054;-40
2022/12/09 04:23:09;;;;;;;0.82;0.43;;;;;;;;;;4141082;28;20053;-40
2022/12/09 04:25:11;;;;;;;0.65;0.40;;;;;;;;;;4133313;28;20113;-39
2022/12/09 04:27:12;;;;;;;0.47;0.47;;;;;;;;;;4143025;28;20100;-39
2022/12/09 04:29:13;;;;;;;0.75;0.50;;;;;;;;;;4112605;28;20063;-40
2022/12/09 04:31:16;;;;;;;0.70;0.47;;;;;;;;;;4152312;28;20057;-40
2022/12/09 04:33:18;;;;;;;1.13;0.50;;;;;;;;;;4145980;28;20096;-39
2022/12/09 04:35:19;;;;;;;0.73;0.50;;;;;;;;;;4132528;28;20050;-39
2022/12/09 04:37:21;;;;;;;0.60;0.47;;;;;;;;;;4146067;28;20107;-39
2022/12/09 04:39:22;;;;;;;1.15;0.50;;;;;;;;;;4139205;28;20059;-40
2022/12/09 04:41:24;;;;;;;0.75;0.43;;;;;;;;;;4139603;28;20057;-39
2022/12/09 04:43:25;;;;;;;0.73;0.40;;;;;;;;;;4145848;28;20057;-39
2022/12/09 04:45:26;;;;;;;0.55;0.47;;;;;;;;;;4145714;28;20107;-39
2022/12/09 04:47:28;;;;;;;0.60;0.40;;;;;;;;;;4146113;28;20383;-40
2022/12/09 04:49:30;;;;;;;0.60;0.50;;;;;;;;;;4137137;28;20046;-39
2022/12/09 04:51:31;;;;;;;0.65;0.50;;;;;;;;;;4141311;28;20100;-39
2022/12/09 04:53:32;;;;;;;0.68;0.50;;;;;;;;;;4147523;28;20050;-39
2022/12/09 04:55:33;;;;;;;0.82;0.60;;;;;;;;;;4149072;28;20058;-40
2022/12/09 04:57:35;;;;;;;0.60;0.40;;;;;;;;;;4131705;28;20054;-40
2022/12/09 04:59:36;;;;;;;0.60;0.40;;;;;;;;;;4131364;28;20186;-39
2022/12/09 05:01:37;;;;;;;0.50;0.40;;;;;;;;;;4148101;28;20101;-39
2022/12/09 05:03:39;;;;;;;1.42;0.70;;;;;;;;;;4118827;28;20505;-39
2022/12/09 05:05:40;;;;;;;0.50;0.32;;;;;;;;;;4149005;28;20096;-39
2022/12/09 05:07:41;;;;;;;0.80;0.47;;;;;;;;;;4131627;28;20061;-39
2022/12/09 05:09:43;;;;;;;0.80;0.60;;;;;;;;;;4118242;28;20054;-40
2022/12/09 05:11:44;;;;;;;0.77;0.60;;;;;;;;;;4134798;28;20520;-39
2022/12/09 05:13:46;;;;;;;0.43;0.40;;;;;;;;;;4148786;28;20509;-39
2022/12/09 05:15:47;;;;;;;0.82;0.52;;;;;;;;;;4163928;28;20084;-40
2022/12/09 05:17:48;;;;;;;0.98;0.50;;;;;;;;;;4148884;28;20057;-40
2022/12/09 05:19:50;;;;;;;0.70;0.50;;;;;;;;;;4148499;28;20060;-39
2022/12/09 05:21:51;;;;;;;0.60;0.50;;;;;;;;;;4144135;28;20092;-39
2022/12/09 05:23:52;;;;;;;0.85;0.55;;;;;;;;;;4132019;28;20057;-40
2022/12/09 05:25:55;;;;;;;0.30;0.30;;;;;;;;;;4143708;28;20050;-39
2022/12/09 05:27:56;;;;;;;0.70;0.40;;;;;;;;;;4147833;28;20097;-40
2022/12/09 05:29:57;;;;;;;0.70;0.40;;;;;;;;;;4136603;28;20070;-40
2022/12/09 05:31:59;;;;;;;1.05;0.55;;;;;;;;;;4141488;28;20501;-40
2022/12/09 05:34:00;;;;;;;1.00;0.68;;;;;;;;;;4108787;28;20051;-39
2022/12/09 05:36:01;;;;;;;0.70;0.40;;;;;;;;;;4148146;28;20058;-39
2022/12/09 05:38:02;;;;;;;0.65;0.50;;;;;;;;;;4145001;28;20054;-39
2022/12/09 05:40:04;;;;;;;1.10;0.50;;;;;;;;;;4114420;28;20573;-39
2022/12/09 05:42:06;;;;;;;1.35;0.50;;;;;;;;;;4141038;28;20058;-39
2022/12/09 05:44:09;;;;;;;0.70;0.52;;;;;;;;;;4148041;28;20144;-40
2022/12/09 05:46:12;;;;;;;0.32;0.32;;;;;;;;;;4128398;28;20058;-39
2022/12/09 05:48:13;;;;;;;1.23;0.60;;;;;;;;;;4135654;28;20049;-39
2022/12/09 05:50:15;;;;;;;0.50;0.50;;;;;;;;;;4147822;28;20062;-39
2022/12/09 05:52:16;;;;;;;1.48;0.68;;;;;;;;;;4148214;28;20061;-40
2022/12/09 05:54:17;;;;;;;0.35;0.32;;;;;;;;;;4133973;28;20046;-39
2022/12/09 05:56:19;;;;;;;1.63;0.60;;;;;;;;;;4146885;28;20132;-40
2022/12/09 05:58:21;;;;;;;0.40;0.40;;;;;;;;;;4147878;28;20058;-40
2022/12/09 06:00:22;;;;;;;0.63;0.60;;;;;;;;;;4145085;28;20058;-39
2022/12/09 06:02:24;;;;;;;1.95;0.95;;;;;;;;;;4142557;28;20050;-39
2022/12/09 06:04:25;;;;;;;0.50;0.50;;;;;;;;;;4132540;28;20127;-39
2022/12/09 06:06:28;;;;;;;0.50;0.40;;;;;;;;;;4137649;28;20446;-40
2022/12/09 06:08:30;;;;;;;0.93;0.60;;;;;;;;;;4139296;28;20050;-39
2022/12/09 06:10:31;;;;;;;0.70;0.50;;;;;;;;;;4145323;28;20066;-39
2022/12/09 06:12:33;;;;;;;0.60;0.40;;;;;;;;;;4132071;28;20065;-40
2022/12/09 06:14:34;;;;;;;1.52;0.55;;;;;;;;;;4128014;28;20526;-39
2022/12/09 06:16:36;;;;;;;0.90;0.70;;;;;;;;;;4145394;28;20512;-41
2022/12/09 06:18:38;;;;;;;2.65;0.55;;;;;;;;;;4145268;28;20058;-39
2022/12/09 06:20:40;;;;;;;1.55;0.50;;;;;;;;;;4145260;28;20062;-40
2022/12/09 06:22:41;;;;;;;0.82;0.63;;;;;;;;;;4145202;28;20108;-40
2022/12/09 06:24:42;;;;;;;0.70;0.57;;;;;;;;;;4136751;28;20489;-39
2022/12/09 06:26:44;;;;;;;1.23;0.50;;;;;;;;;;4145475;28;20058;-40
2022/12/09 06:28:46;;;;;;;1.42;0.73;;;;;;;;;;4131803;28;20426;-39
2022/12/09 06:30:47;;;;;;;2.90;0.60;;;;;;;;;;4139956;28;20062;-40
2022/12/09 06:32:48;;;;;;;1.52;0.73;;;;;;;;;;4136669;28;20054;-40
2022/12/09 06:34:50;;;;;;;2.30;0.73;;;;;;;;;;4134556;28;20540;-40
2022/12/09 06:36:51;;;;;;;2.30;0.82;;;;;;;;;;4141970;28;20438;-39
2022/12/09 06:38:53;;;;;;;2.38;0.88;;;;;;;;;;4140035;28;20058;-39
2022/12/09 06:40:54;;;;;;;1.25;0.68;;;;;;;;;;4118224;28;20113;-40
2022/12/09 06:42:56;;;;;;;1.45;0.50;;;;;;;;;;4145680;28;20066;-39
2022/12/09 06:44:57;;;;;;;3.50;0.90;;;;;;;;;;4111525;28;20062;-41
2022/12/09 06:46:58;;;;;;;3.72;0.90;;;;;;;;;;4144492;28;20434;-39
2022/12/09 06:49:00;;;;;;;1.08;0.60;;;;;;;;;;4144659;28;20498;-40
2022/12/09 06:51:01;;;;;;;4.43;1.10;;;;;;;;;;4144762;28;20489;-40
2022/12/09 06:53:03;;;;;;;1.77;1.05;;;;;;;;;;4131734;28;20054;-40
2022/12/09 06:55:06;;;;;;;2.47;0.80;;;;;;;;;;4143076;28;20053;-40
2022/12/09 06:57:07;;;;;;;1.70;0.98;;;;;;;;;;4144843;28;20062;-40
2022/12/09 06:59:09;;;;;;;2.88;0.80;;;;;;;;;;4137056;28;20058;-40
2022/12/09 07:01:13;;;;;;;2.85;0.88;;;;;;;;;;4139502;28;20066;-40
2022/12/09 07:03:15;;;;;;;2.88;1.00;;;;;;;;;;4144584;28;20054;-41
2022/12/09 07:05:16;;;;;;;2.13;0.70;;;;;;;;;;4122826;28;20102;-41
2022/12/09 07:07:17;;;;;;;4.18;0.85;;;;;;;;;;4136472;28;20422;-40
2022/12/09 07:09:20;;;;;;;2.40;0.82;;;;;;;;;;4134014;28;20109;-39
2022/12/09 07:11:21;;;;;;;1.27;0.70;;;;;;;;;;4141961;28;20062;-39
2022/12/09 07:13:23;;;;;;;3.13;1.00;;;;;;;;;;4144266;28;20054;-40
2022/12/09 07:15:25;;;;;;;2.88;1.10;;;;;;;;;;4143905;28;20050;-40
2022/12/09 07:17:26;;;;;;;1.80;0.90;;;;;;;;;;4144591;28;20108;-44
2022/12/09 07:19:28;;;;;;;2.53;0.82;;;;;;;;;;4136199;28;20058;-40
2022/12/09 07:21:29;;;;;;;5.40;1.08;;;;;;;;;;4120195;28;20113;-40
2022/12/09 07:23:30;;;;;;;1.50;0.85;;;;;;;;;;4151330;28;20075;-40
2022/12/09 07:25:32;;;;;;;2.85;0.90;;;;;;;;;;4146197;28;20068;-40
2022/12/09 07:27:33;;;;;;;1.85;0.80;;;;;;;;;;4140650;28;20324;-40
2022/12/09 07:29:35;;;;;;;1.40;0.70;;;;;;;;;;4138937;28;20149;-41
2022/12/09 07:31:37;;;;;;;1.65;0.73;;;;;;;;;;4153506;28;20057;-40
2022/12/09 07:33:38;;;;;;;3.75;0.70;;;;;;;;;;4139033;28;20061;-40
2022/12/09 07:35:39;;;;;;;0.95;0.60;;;;;;;;;;4148130;28;20050;-40
2022/12/09 07:37:41;;;;;;;3.40;0.70;;;;;;;;;;4144667;28;20113;-40
2022/12/09 07:39:42;;;;;;;3.13;0.95;;;;;;;;;;4143428;28;20065;-42
2022/12/09 07:41:44;;;;;;;2.20;0.95;;;;;;;;;;4148158;28;20791;-40
2022/12/09 07:43:46;;;;;;;2.33;1.00;;;;;;;;;;4124393;28;20065;-39
2022/12/09 07:45:48;;;;;;;3.05;1.23;;;;;;;;;;4121307;28;20062;-39
2022/12/09 07:47:49;;;;;;;0.77;0.65;;;;;;;;;;4132969;28;20057;-41
2022/12/09 07:49:51;;;;;;;4.10;1.20;;;;;;;;;;4131015;28;20078;-39
2022/12/09 07:51:52;;;;;;;4.00;1.05;;;;;;;;;;4141081;28;20045;-40
2022/12/09 07:53:53;;;;;;;4.53;0.88;;;;;;;;;;4144811;28;20513;-42
2022/12/09 07:55:55;;;;;;;1.52;0.88;;;;;;;;;;4140425;28;20062;-41
2022/12/09 07:57:56;;;;;;;5.15;0.95;;;;;;;;;;4146156;28;20064;-42
2022/12/09 07:59:57;;;;;;;3.45;1.05;;;;;;;;;;4139919;28;20053;-41
2022/12/09 08:01:59;;;;;;;3.28;0.95;;;;;;;;;;4131543;28;20351;-40
2022/12/09 08:04:01;;;;;;;2.55;0.98;;;;;;;;;;4138173;28;20065;-42
2022/12/09 08:06:03;;;;;;;2.83;1.02;;;;;;;;;;4132133;28;20065;-41
2022/12/09 08:08:04;;;;;;;2.78;1.02;;;;;;;;;;4109232;28;20057;-43
2022/12/09 08:10:06;;;;;;;5.30;1.20;;;;;;;;;;4136844;28;20062;-42
2022/12/09 08:12:10;;;;;;;1.77;1.00;;;;;;;;;;4136430;28;20092;-43
2022/12/09 08:14:12;;;;;;;2.70;1.10;;;;;;;;;;4140891;28;20053;-42
2022/12/09 08:16:15;;;;;;;1.23;0.80;;;;;;;;;;4143312;28;20060;-43
2022/12/09 08:18:16;;;;;;;1.67;1.50;;;;;;;;;;4139615;28;20057;-41
2022/12/09 08:20:17;;;;;;;2.30;1.00;;;;;;;;;;4132608;28;20093;-41
2022/12/09 08:22:19;;;;;;;7.03;0.95;;;;;;;;;;4140904;28;20061;-41
2022/12/09 08:24:20;;;;;;;4.82;1.08;;;;;;;;;;4140742;28;20100;-40
2022/12/09 08:26:22;;;;;;;1.55;0.77;;;;;;;;;;4143085;28;20096;-41
2022/12/09 08:28:24;;;;;;;1.70;0.85;;;;;;;;;;4144492;28;20470;-41
2022/12/09 08:30:25;;;;;;;2.17;0.95;;;;;;;;;;4150770;28;20083;-41
2022/12/09 08:32:27;;;;;;;3.67;0.90;;;;;;;;;;4146791;28;20120;-42
2022/12/09 08:34:28;;;;;;;1.95;0.90;;;;;;;;;;4146608;28;20481;-41
2022/12/09 08:36:29;;;;;;;1.25;0.80;;;;;;;;;;4142088;28;20085;-41
2022/12/09 08:38:31;;;;;;;2.15;0.60;;;;;;;;;;4140073;28;20053;-44
2022/12/09 08:40:33;;;;;;;1.58;0.63;;;;;;;;;;4144315;28;20054;-40
2022/12/09 08:42:35;;;;;;;1.23;0.60;;;;;;;;;;4143975;28;20054;-40
2022/12/09 08:44:36;;;;;;;2.17;0.75;;;;;;;;;;4146548;28;20453;-41
2022/12/09 08:46:40;;;;;;;0.80;0.60;;;;;;;;;;4144719;28;20057;-41
2022/12/09 08:48:41;;;;;;;1.92;0.70;;;;;;;;;;4137991;28;20058;-44
2022/12/09 08:50:42;;;;;;;2.35;0.82;;;;;;;;;;4137065;28;20583;-41
2022/12/09 08:52:44;;;;;;;1.33;0.80;;;;;;;;;;4142001;28;20054;-41
2022/12/09 08:54:46;;;;;;;2.80;0.65;;;;;;;;;;4140696;28;20555;-41
2022/12/09 08:56:51;;;;;;;2.90;0.73;;;;;;;;;;4140389;28;20057;-40
2022/12/09 08:58:54;;;;;;;3.35;0.90;;;;;;;;;;4140600;28;20461;-41
2022/12/09 09:00:55;;;;;;;2.75;1.20;;;;;;;;;;4142588;28;20512;-40
2022/12/09 09:02:56;;;;;;;1.85;0.77;;;;;;;;;;4142861;28;20120;-40
2022/12/09 09:04:58;;;;;;;1.75;0.80;;;;;;;;;;4115871;28;20117;-40
2022/12/09 09:06:59;;;;;;;3.30;0.98;;;;;;;;;;4129019;28;20061;-41
2022/12/09 09:09:00;;;;;;;3.20;0.80;;;;;;;;;;4131164;28;20424;-40
2022/12/09 09:11:09;;;;;;;2.63;0.82;;;;;;;;;;4158750;28;20092;-40
2022/12/09 09:13:10;;;;;;;2.35;0.80;;;;;;;;;;4139910;28;20100;-42
2022/12/09 09:15:11;;;;;;;2.22;0.75;;;;;;;;;;4143522;28;20164;-41
2022/12/09 09:17:13;;;;;;;2.20;0.77;;;;;;;;;;4126408;28;20058;-40
2022/12/09 09:19:17;;;;;;;3.03;1.08;;;;;;;;;;4126310;28;20069;-41
2022/12/09 09:21:21;;;;;;;2.38;1.05;;;;;;;;;;4147774;28;20527;-39
2022/12/09 09:23:22;;;;;;;3.60;1.05;;;;;;;;;;4149455;28;20056;-41
2022/12/09 09:25:24;;;;;;;2.55;0.85;;;;;;;;;;4151226;28;20053;-41
2022/12/09 09:27:25;;;;;;;1.95;0.68;;;;;;;;;;4150087;28;20056;-41
2022/12/09 09:29:27;;;;;;;2.80;1.00;;;;;;;;;;4149909;28;20058;-39
2022/12/09 09:31:28;;;;;;;2.15;0.80;;;;;;;;;;4147070;28;20112;-40
2022/12/09 09:33:29;;;;;;;2.10;0.85;;;;;;;;;;4137840;28;20195;-39
2022/12/09 09:35:30;;;;;;;3.22;1.20;;;;;;;;;;4143655;28;20425;-39
2022/12/09 09:37:32;;;;;;;1.55;0.63;;;;;;;;;;4137405;28;20057;-40
2022/12/09 09:39:33;;;;;;;4.40;0.80;;;;;;;;;;4139283;28;20501;-40
2022/12/09 09:41:56;;;;;;;1.63;0.60;;;;;;;;;;4143502;28;20076;-38
2022/12/09 09:43:57;;;;;;;1.98;0.80;;;;;;;;;;4145278;28;20061;-41
2022/12/09 09:45:58;;;;;;;0.98;0.60;;;;;;;;;;4105610;28;20054;-39
2022/12/09 09:48:01;;;;;;;1.50;0.88;;;;;;;;;;4141959;28;20053;-40
2022/12/09 09:50:21;;;;;;;1.60;0.70;;;;;;;;;;4106671;28;20070;-40
2022/12/09 09:52:25;;;;;;;1.33;0.90;;;;;;;;;;4144147;28;20112;-40
2022/12/09 09:54:26;;;;;;;0.80;0.63;;;;;;;;;;4148424;28;20054;-39
2022/12/09 09:56:30;;;;;;;1.42;0.80;;;;;;;;;;4147209;28;20420;-41
2022/12/09 09:58:45;;;;;;;1.50;1.00;;;;;;;;;;4126093;28;20192;-40
2022/12/09 10:01:07;;;;;;;0.93;0.60;;;;;;;;;;4124012;28;20069;-42
2022/12/09 10:03:18;;;;;;;2.33;0.75;;;;;;;;;;4147423;28;20904;-41
2022/12/09 10:05:49;;;;;;;2.75;0.95;;;;;;;;;;4142232;28;20057;-41
2022/12/09 10:07:53;;;;;;;1.42;0.63;;;;;;;;;;4146983;28;20135;-40
2022/12/09 10:10:10;;;;;;;0.88;0.82;;;;;;;;;;4125516;28;20094;-40
2022/12/09 10:12:24;;;;;;;1.20;0.88;;;;;;;;;;4144768;28;20097;-40
2022/12/09 10:14:57;;;;;;;1.92;0.80;;;;;;;;;;4141310;28;20465;-39
2022/12/09 10:17:33;;;;;;;1.42;0.70;;;;;;;;;;4113674;28;20108;-40
2022/12/09 10:19:38;;;;;;;0.90;0.73;;;;;;;;;;4146942;28;20053;-39
2022/12/09 10:21:41;;;;;;;1.10;0.73;;;;;;;;;;4116801;28;20061;-40
2022/12/09 10:23:44;;;;;;;1.58;0.88;;;;;;;;;;4132027;28;20109;-39
2022/12/09 10:25:56;;;;;;;0.90;0.70;;;;;;;;;;4142134;28;20068;-40
2022/12/09 10:28:21;;;;;;;2.50;0.90;;;;;;;;;;4115517;28;20061;-41
2022/12/09 10:30:23;;;;;;;2.35;0.70;;;;;;;;;;4134291;28;20722;-40
2022/12/09 10:32:29;;;;;;;1.52;0.80;;;;;;;;;;4133291;28;20120;-41
2022/12/09 10:34:30;;;;;;;0.88;0.73;;;;;;;;;;4148246;28;20045;-42
2022/12/09 10:36:32;;;;;;;1.63;0.65;;;;;;;;;;4142167;28;20115;-40
2022/12/09 10:38:36;;;;;;;0.70;0.60;;;;;;;;;;4144572;28;20117;-41
2022/12/09 10:40:48;;;;;;;1.73;0.95;;;;;;;;;;4136225;28;20049;-41
2022/12/09 10:45:14;;;;;;;2.05;0.80;;;;;;;;;;4135058;28;20065;-41
2022/12/09 10:47:26;;;;;;;2.65;1.10;;;;;;;;;;4145815;28;20120;-42
2022/12/09 10:49:28;;;;;;;3.90;0.98;;;;;;;;;;4127110;28;20085;-41
2022/12/09 10:51:47;;;;;;;1.73;0.73;;;;;;;;;;4142003;28;20045;-40
2022/12/09 10:53:57;;;;;;;2.63;0.80;;;;;;;;;;4138539;28;20054;-41
2022/12/09 10:56:00;;;;;;;1.30;0.95;;;;;;;;;;4160408;28;20470;-40
2022/12/09 10:58:16;;;;;;;1.15;0.80;;;;;;;;;;4165905;28;20053;-40
2022/12/09 11:00:23;;;;;;;1.02;0.90;;;;;;;;;;4149240;28;20108;-40
2022/12/09 11:02:25;;;;;;;1.35;0.80;;;;;;;;;;4152385;28;20061;-41
2022/12/09 11:04:37;;;;;;;1.80;0.90;;;;;;;;;;4146764;28;20058;-41
2022/12/09 11:06:39;;;;;;;1.83;1.10;;;;;;;;;;4143530;28;20080;-40
2022/12/09 11:08:41;;;;;;;1.40;0.95;;;;;;;;;;4137352;28;20053;-42
2022/12/09 11:10:49;;;;;;;1.25;0.95;;;;;;;;;;4205652;27;20616;-39
2022/12/09 11:12:59;;;;;;;1.10;0.80;;;;;;;;;;4202130;28;20069;-38
2022/12/09 11:15:09;;;;;;;2.92;0.80;;;;;;;;;;4199791;28;20090;-44
2022/12/09 11:17:12;;;;;;;2.45;0.82;;;;;;;;;;4200253;28;20470;-41
2022/12/09 11:19:14;;;;;;;0.77;0.70;;;;;;;;;;4201020;28;20044;-39
2022/12/09 11:21:34;;;;;;;1.10;0.95;;;;;;;;;;4204410;28;20041;-39
2022/12/09 11:23:36;;;;;;;1.00;0.90;;;;;;;;;;4205865;28;20056;-39
2022/12/09 11:25:37;;;;;;;2.50;0.70;;;;;;;;;;4203559;28;20101;-39
2022/12/09 11:27:50;;;;;;;1.65;1.20;;;;;;;;;;4194668;28;20056;-39
2022/12/09 11:30:09;;;;;;;4.10;1.27;;;;;;;;;;4199173;28;20085;-40
2022/12/09 11:32:12;;;;;;;2.80;0.80;;;;;;;;;;4201837;28;20056;-39
2022/12/09 11:34:24;;;;;;;2.38;0.75;;;;;;;;;;4202056;28;20106;-39
2022/12/09 11:36:34;;;;;;;1.70;1.13;;;;;;;;;;4198891;28;20056;-40
2022/12/09 11:38:37;;;;;;;;;;;;;;;;;;4199720;28;20114;-40
2022/12/09 11:40:38;;;;;;;1.70;0.85;;;;;;;;;;4198672;28;19920;-37
2022/12/09 11:42:40;;;;;;;2.97;1.00;;;;;;;;;;4197432;28;20973;-38
2022/12/09 11:44:47;;;;;;;2.33;1.15;;;;;;;;;;4195773;28;20071;-44
2022/12/09 11:47:41;;;;;;;3.08;1.10;;;;;;;;;;4203063;28;20059;-40
2022/12/09 11:49:59;;;;;;;3.53;1.17;;;;;;;;;;4197752;28;21429;-41
2022/12/09 11:52:06;;;;;;;3.15;1.38;;;;;;;;;;4198648;28;20070;-40
2022/12/09 11:54:17;;;;;;;3.17;1.20;;;;;;;;;;4198406;28;20052;-45
2022/12/09 11:56:24;;;;;;;2.20;0.98;;;;;;;;;;4197383;28;20056;-39
2022/12/09 11:58:28;;;;;;;3.50;1.30;;;;;;;;;;4183231;28;20132;-38
2022/12/09 12:00:34;;;;;;;2.70;1.08;;;;;;;;;;4196333;28;20639;-39
2022/12/09 12:02:43;;;;;;;3.78;1.20;;;;;;;;;;4199130;28;20062;-41
2022/12/09 12:04:55;;;;;;;4.57;1.73;;;;;;;;;;4168979;28;20087;-39
2022/12/09 12:07:01;;;;;;;2.90;1.40;;;;;;;;;;4201907;28;20071;-39
2022/12/09 12:09:14;;;;;;;3.08;1.58;;;;;;;;;;4203585;28;20071;-39
2022/12/09 12:11:23;;;;;;;2.65;1.55;;;;;;;;;;4201947;28;20054;-42
2022/12/09 12:13:27;;;;;;;3.20;1.40;;;;;;;;;;4200683;28;20060;-42
2022/12/09 12:15:39;;;;;;;3.38;1.08;;;;;;;;;;4198507;28;20143;-41
2022/12/09 12:17:42;;;;;;;2.45;1.27;;;;;;;;;;4200301;28;20056;-41
2022/12/09 12:19:48;;;;;;;3.08;1.35;;;;;;;;;;4193195;28;20063;-40
2022/12/09 12:22:07;;;;;;;2.30;1.20;;;;;;;;;;4189332;28;20560;-41
2022/12/09 12:24:31;;;;;;;1.88;1.02;;;;;;;;;;4186260;28;20112;-43
2022/12/09 12:27:16;;;;;;;3.53;1.20;;;;;;;;;;4185676;28;20066;-42
2022/12/09 12:29:28;;;;;;;2.45;1.20;;;;;;;;;;4162830;28;20057;-40